sensor_id;sensor_type;location;lat;lon;timestamp;P1;durP1;ratioP1;P2;durP2;ratioP2
4055;SDS011;2043;52.184;8.690;2023-11-19T00:02:16;7.03;;;3.40;;
4055;SDS011;2043;52.184;8.690;2023-11-19T00:04:43;7.87;;;3.73;;
4055;SDS011;2043;52.184;8.690;2023-11-19T00:07:10;8.70;;;3.83;;
4055;SDS011;2043;52.184;8.690;2023-11-19T00:09:38;7.77;;;4.10;;
4055;SDS011;2043;52.184;8.690;2023-11-19T00:12:06;10.90;;;4.17;;
4055;SDS011;2043;52.184;8.690;2023-11-19T00:14:33;8.97;;;3.80;;
4055;SDS011;2043;52.184;8.690;2023-11-19T00:17:03;5.97;;;2.90;;
4055;SDS011;2043;52.184;8.690;2023-11-19T00:19:30;7.87;;;3.47;;
4055;SDS011;2043;52.184;8.690;2023-11-19T00:21:57;6.20;;;3.70;;
4055;SDS011;2043;52.184;8.690;2023-11-19T00:24:29;8.53;;;3.83;;
4055;SDS011;2043;52.184;8.690;2023-11-19T00:26:56;6.37;;;3.27;;
4055;SDS011;2043;52.184;8.690;2023-11-19T00:29:23;7.03;;;3.53;;
4055;SDS011;2043;52.184;8.690;2023-11-19T00:31:51;8.43;;;4.33;;
4055;SDS011;2043;52.184;8.690;2023-11-19T00:34:18;9.33;;;4.40;;
4055;SDS011;2043;52.184;8.690;2023-11-19T00:36:47;6.77;;;4.10;;
4055;SDS011;2043;52.184;8.690;2023-11-19T00:39:15;7.13;;;3.23;;
4055;SDS011;2043;52.184;8.690;2023-11-19T00:41:42;6.23;;;3.67;;
4055;SDS011;2043;52.184;8.690;2023-11-19T00:44:09;9.53;;;4.20;;
4055;SDS011;2043;52.184;8.690;2023-11-19T00:46:35;5.60;;;3.50;;
4055;SDS011;2043;52.184;8.690;2023-11-19T00:49:03;7.83;;;2.97;;
4055;SDS011;2043;52.184;8.690;2023-11-19T00:51:30;4.50;;;3.43;;
4055;SDS011;2043;52.184;8.690;2023-11-19T00:53:58;4.90;;;3.23;;
4055;SDS011;2043;52.184;8.690;2023-11-19T00:56:25;6.87;;;3.03;;
4055;SDS011;2043;52.184;8.690;2023-11-19T00:58:52;7.47;;;3.60;;
4055;SDS011;2043;52.184;8.690;2023-11-19T01:01:19;5.80;;;2.43;;
4055;SDS011;2043;52.184;8.690;2023-11-19T01:03:45;5.33;;;3.20;;
4055;SDS011;2043;52.184;8.690;2023-11-19T01:06:13;5.67;;;3.03;;
4055;SDS011;2043;52.184;8.690;2023-11-19T01:08:42;6.03;;;3.20;;
4055;SDS011;2043;52.184;8.690;2023-11-19T01:11:19;3.73;;;2.87;;
4055;SDS011;2043;52.184;8.690;2023-11-19T01:13:47;5.20;;;2.97;;
4055;SDS011;2043;52.184;8.690;2023-11-19T01:16:14;6.30;;;3.17;;
4055;SDS011;2043;52.184;8.690;2023-11-19T01:18:41;10.60;;;3.70;;
4055;SDS011;2043;52.184;8.690;2023-11-19T01:21:08;4.43;;;2.93;;
4055;SDS011;2043;52.184;8.690;2023-11-19T01:23:35;9.70;;;2.87;;
4055;SDS011;2043;52.184;8.690;2023-11-19T01:26:03;6.93;;;3.10;;
4055;SDS011;2043;52.184;8.690;2023-11-19T01:28:31;8.60;;;4.03;;
4055;SDS011;2043;52.184;8.690;2023-11-19T01:30:58;9.57;;;3.90;;
4055;SDS011;2043;52.184;8.690;2023-11-19T01:33:25;4.90;;;3.40;;
4055;SDS011;2043;52.184;8.690;2023-11-19T01:35:53;4.83;;;3.17;;
4055;SDS011;2043;52.184;8.690;2023-11-19T01:38:19;8.00;;;3.50;;
4055;SDS011;2043;52.184;8.690;2023-11-19T01:40:46;8.50;;;3.43;;
4055;SDS011;2043;52.184;8.690;2023-11-19T01:43:30;8.00;;;3.33;;
4055;SDS011;2043;52.184;8.690;2023-11-19T01:46:01;4.83;;;3.33;;
4055;SDS011;2043;52.184;8.690;2023-11-19T01:48:35;8.60;;;4.03;;
4055;SDS011;2043;52.184;8.690;2023-11-19T01:51:07;7.80;;;3.57;;
4055;SDS011;2043;52.184;8.690;2023-11-19T01:53:36;8.27;;;4.07;;
4055;SDS011;2043;52.184;8.690;2023-11-19T01:56:04;6.27;;;3.20;;
4055;SDS011;2043;52.184;8.690;2023-11-19T01:58:35;10.60;;;5.20;;
4055;SDS011;2043;52.184;8.690;2023-11-19T02:01:03;8.73;;;5.40;;
4055;SDS011;2043;52.184;8.690;2023-11-19T02:03:31;8.20;;;4.80;;
4055;SDS011;2043;52.184;8.690;2023-11-19T02:05:59;8.67;;;5.30;;
4055;SDS011;2043;52.184;8.690;2023-11-19T02:08:26;10.47;;;5.17;;
4055;SDS011;2043;52.184;8.690;2023-11-19T02:10:53;8.80;;;5.53;;
4055;SDS011;2043;52.184;8.690;2023-11-19T02:13:24;9.30;;;5.50;;
4055;SDS011;2043;52.184;8.690;2023-11-19T02:15:52;10.37;;;6.13;;
4055;SDS011;2043;52.184;8.690;2023-11-19T02:18:20;11.20;;;5.80;;
4055;SDS011;2043;52.184;8.690;2023-11-19T02:20:49;11.87;;;7.10;;
4055;SDS011;2043;52.184;8.690;2023-11-19T02:23:17;10.63;;;5.97;;
4055;SDS011;2043;52.184;8.690;2023-11-19T02:25:47;11.40;;;6.73;;
4055;SDS011;2043;52.184;8.690;2023-11-19T02:28:41;9.80;;;4.93;;
4055;SDS011;2043;52.184;8.690;2023-11-19T02:31:09;10.17;;;6.60;;
4055;SDS011;2043;52.184;8.690;2023-11-19T02:33:37;11.00;;;6.00;;
4055;SDS011;2043;52.184;8.690;2023-11-19T02:36:05;14.97;;;7.73;;
4055;SDS011;2043;52.184;8.690;2023-11-19T02:38:33;10.33;;;6.70;;
4055;SDS011;2043;52.184;8.690;2023-11-19T02:41:05;10.57;;;6.80;;
4055;SDS011;2043;52.184;8.690;2023-11-19T02:43:34;14.77;;;8.30;;
4055;SDS011;2043;52.184;8.690;2023-11-19T02:46:01;9.73;;;5.47;;
4055;SDS011;2043;52.184;8.690;2023-11-19T02:48:41;17.40;;;7.53;;
4055;SDS011;2043;52.184;8.690;2023-11-19T02:51:09;9.60;;;5.67;;
4055;SDS011;2043;52.184;8.690;2023-11-19T02:53:37;13.20;;;7.53;;
4055;SDS011;2043;52.184;8.690;2023-11-19T02:56:04;11.07;;;7.40;;
4055;SDS011;2043;52.184;8.690;2023-11-19T02:58:52;17.23;;;7.77;;
4055;SDS011;2043;52.184;8.690;2023-11-19T03:01:23;12.73;;;8.77;;
4055;SDS011;2043;52.184;8.690;2023-11-19T03:03:57;14.10;;;7.73;;
4055;SDS011;2043;52.184;8.690;2023-11-19T03:06:25;11.53;;;7.17;;
4055;SDS011;2043;52.184;8.690;2023-11-19T03:08:54;14.00;;;9.13;;
4055;SDS011;2043;52.184;8.690;2023-11-19T03:11:21;14.63;;;9.33;;
4055;SDS011;2043;52.184;8.690;2023-11-19T03:13:48;17.37;;;9.17;;
4055;SDS011;2043;52.184;8.690;2023-11-19T03:16:15;20.83;;;11.33;;
4055;SDS011;2043;52.184;8.690;2023-11-19T03:18:43;28.80;;;12.27;;
4055;SDS011;2043;52.184;8.690;2023-11-19T03:21:10;17.53;;;11.90;;
4055;SDS011;2043;52.184;8.690;2023-11-19T03:23:36;27.73;;;9.40;;
4055;SDS011;2043;52.184;8.690;2023-11-19T03:26:03;21.47;;;10.70;;
4055;SDS011;2043;52.184;8.690;2023-11-19T03:28:32;20.20;;;12.87;;
4055;SDS011;2043;52.184;8.690;2023-11-19T03:30:59;27.40;;;13.90;;
4055;SDS011;2043;52.184;8.690;2023-11-19T03:33:26;25.20;;;14.43;;
4055;SDS011;2043;52.184;8.690;2023-11-19T03:35:54;19.60;;;11.80;;
4055;SDS011;2043;52.184;8.690;2023-11-19T03:38:23;23.57;;;14.57;;
4055;SDS011;2043;52.184;8.690;2023-11-19T03:40:51;24.17;;;13.70;;
4055;SDS011;2043;52.184;8.690;2023-11-19T03:43:18;22.80;;;14.03;;
4055;SDS011;2043;52.184;8.690;2023-11-19T03:45:47;27.03;;;12.90;;
4055;SDS011;2043;52.184;8.690;2023-11-19T03:48:15;20.37;;;13.47;;
4055;SDS011;2043;52.184;8.690;2023-11-19T03:50:42;24.20;;;14.10;;
4055;SDS011;2043;52.184;8.690;2023-11-19T03:53:10;22.77;;;13.03;;
4055;SDS011;2043;52.184;8.690;2023-11-19T03:55:38;26.70;;;14.90;;
4055;SDS011;2043;52.184;8.690;2023-11-19T03:58:04;27.70;;;15.63;;
4055;SDS011;2043;52.184;8.690;2023-11-19T04:00:31;20.60;;;13.37;;
4055;SDS011;2043;52.184;8.690;2023-11-19T04:02:58;25.43;;;14.37;;
4055;SDS011;2043;52.184;8.690;2023-11-19T04:05:26;31.47;;;14.30;;
4055;SDS011;2043;52.184;8.690;2023-11-19T04:07:53;28.17;;;15.27;;
4055;SDS011;2043;52.184;8.690;2023-11-19T04:10:19;26.10;;;14.40;;
4055;SDS011;2043;52.184;8.690;2023-11-19T04:12:48;27.83;;;13.33;;
4055;SDS011;2043;52.184;8.690;2023-11-19T04:15:16;21.03;;;13.80;;
4055;SDS011;2043;52.184;8.690;2023-11-19T04:17:42;27.07;;;15.20;;
4055;SDS011;2043;52.184;8.690;2023-11-19T04:20:09;23.90;;;13.13;;
4055;SDS011;2043;52.184;8.690;2023-11-19T04:22:39;31.17;;;13.83;;
4055;SDS011;2043;52.184;8.690;2023-11-19T04:25:07;22.90;;;13.73;;
4055;SDS011;2043;52.184;8.690;2023-11-19T04:27:35;23.03;;;12.97;;
4055;SDS011;2043;52.184;8.690;2023-11-19T04:30:01;29.73;;;12.43;;
4055;SDS011;2043;52.184;8.690;2023-11-19T04:32:29;28.20;;;14.20;;
4055;SDS011;2043;52.184;8.690;2023-11-19T04:34:56;25.07;;;12.67;;
4055;SDS011;2043;52.184;8.690;2023-11-19T04:37:23;19.03;;;11.37;;
4055;SDS011;2043;52.184;8.690;2023-11-19T04:39:50;20.33;;;11.70;;
4055;SDS011;2043;52.184;8.690;2023-11-19T04:42:17;25.77;;;12.60;;
4055;SDS011;2043;52.184;8.690;2023-11-19T04:44:44;21.43;;;10.80;;
4055;SDS011;2043;52.184;8.690;2023-11-19T04:47:11;21.33;;;9.20;;
4055;SDS011;2043;52.184;8.690;2023-11-19T04:49:41;27.20;;;12.33;;
4055;SDS011;2043;52.184;8.690;2023-11-19T04:52:10;23.10;;;12.23;;
4055;SDS011;2043;52.184;8.690;2023-11-19T04:54:42;31.70;;;12.87;;
4055;SDS011;2043;52.184;8.690;2023-11-19T04:57:09;22.03;;;11.00;;
4055;SDS011;2043;52.184;8.690;2023-11-19T04:59:39;23.40;;;11.27;;
4055;SDS011;2043;52.184;8.690;2023-11-19T05:02:08;29.73;;;13.00;;
4055;SDS011;2043;52.184;8.690;2023-11-19T05:04:35;19.70;;;10.70;;
4055;SDS011;2043;52.184;8.690;2023-11-19T05:07:01;24.03;;;10.80;;
4055;SDS011;2043;52.184;8.690;2023-11-19T05:09:29;26.13;;;10.30;;
4055;SDS011;2043;52.184;8.690;2023-11-19T05:11:56;20.97;;;9.80;;
4055;SDS011;2043;52.184;8.690;2023-11-19T05:14:23;18.73;;;8.60;;
4055;SDS011;2043;52.184;8.690;2023-11-19T05:16:50;25.83;;;9.10;;
4055;SDS011;2043;52.184;8.690;2023-11-19T05:19:17;21.30;;;8.77;;
4055;SDS011;2043;52.184;8.690;2023-11-19T05:21:47;23.47;;;8.90;;
4055;SDS011;2043;52.184;8.690;2023-11-19T05:24:17;22.90;;;8.67;;
4055;SDS011;2043;52.184;8.690;2023-11-19T05:26:44;27.57;;;9.13;;
4055;SDS011;2043;52.184;8.690;2023-11-19T05:29:10;21.07;;;7.40;;
4055;SDS011;2043;52.184;8.690;2023-11-19T05:31:37;24.70;;;7.30;;
4055;SDS011;2043;52.184;8.690;2023-11-19T05:34:06;19.70;;;7.00;;
4055;SDS011;2043;52.184;8.690;2023-11-19T05:36:33;26.10;;;6.80;;
4055;SDS011;2043;52.184;8.690;2023-11-19T05:39:00;29.70;;;7.90;;
4055;SDS011;2043;52.184;8.690;2023-11-19T05:41:27;20.03;;;5.60;;
4055;SDS011;2043;52.184;8.690;2023-11-19T05:43:54;18.20;;;5.03;;
4055;SDS011;2043;52.184;8.690;2023-11-19T05:46:20;20.17;;;5.57;;
4055;SDS011;2043;52.184;8.690;2023-11-19T05:48:48;26.73;;;7.43;;
4055;SDS011;2043;52.184;8.690;2023-11-19T05:51:14;22.67;;;5.53;;
4055;SDS011;2043;52.184;8.690;2023-11-19T05:53:42;28.03;;;6.17;;
4055;SDS011;2043;52.184;8.690;2023-11-19T05:56:09;25.97;;;5.77;;
4055;SDS011;2043;52.184;8.690;2023-11-19T05:58:36;25.77;;;5.80;;
4055;SDS011;2043;52.184;8.690;2023-11-19T06:01:05;17.93;;;4.60;;
4055;SDS011;2043;52.184;8.690;2023-11-19T06:03:34;25.60;;;4.73;;
4055;SDS011;2043;52.184;8.690;2023-11-19T06:06:01;25.40;;;4.90;;
4055;SDS011;2043;52.184;8.690;2023-11-19T06:08:28;26.43;;;5.50;;
4055;SDS011;2043;52.184;8.690;2023-11-19T06:10:55;24.63;;;6.37;;
4055;SDS011;2043;52.184;8.690;2023-11-19T06:13:22;24.30;;;6.00;;
4055;SDS011;2043;52.184;8.690;2023-11-19T06:15:50;15.83;;;4.30;;
4055;SDS011;2043;52.184;8.690;2023-11-19T06:18:17;19.17;;;5.10;;
4055;SDS011;2043;52.184;8.690;2023-11-19T06:20:46;20.50;;;5.20;;
4055;SDS011;2043;52.184;8.690;2023-11-19T06:23:13;18.90;;;4.80;;
4055;SDS011;2043;52.184;8.690;2023-11-19T06:25:40;33.43;;;5.53;;
4055;SDS011;2043;52.184;8.690;2023-11-19T06:28:07;18.47;;;4.80;;
4055;SDS011;2043;52.184;8.690;2023-11-19T06:30:34;26.33;;;5.43;;
4055;SDS011;2043;52.184;8.690;2023-11-19T06:33:02;23.23;;;5.00;;
4055;SDS011;2043;52.184;8.690;2023-11-19T06:35:30;17.53;;;3.70;;
4055;SDS011;2043;52.184;8.690;2023-11-19T06:38:03;20.40;;;4.30;;
4055;SDS011;2043;52.184;8.690;2023-11-19T06:40:33;32.30;;;5.57;;
4055;SDS011;2043;52.184;8.690;2023-11-19T06:43:01;38.60;;;6.33;;
4055;SDS011;2043;52.184;8.690;2023-11-19T06:45:30;20.03;;;5.77;;
4055;SDS011;2043;52.184;8.690;2023-11-19T06:47:57;31.10;;;5.57;;
4055;SDS011;2043;52.184;8.690;2023-11-19T06:50:25;20.83;;;4.90;;
4055;SDS011;2043;52.184;8.690;2023-11-19T06:52:51;29.00;;;5.80;;
4055;SDS011;2043;52.184;8.690;2023-11-19T06:55:18;23.07;;;5.33;;
4055;SDS011;2043;52.184;8.690;2023-11-19T06:57:45;24.80;;;6.50;;
4055;SDS011;2043;52.184;8.690;2023-11-19T07:00:12;22.87;;;5.37;;
4055;SDS011;2043;52.184;8.690;2023-11-19T07:02:39;31.87;;;5.60;;
4055;SDS011;2043;52.184;8.690;2023-11-19T07:05:06;27.70;;;5.20;;
4055;SDS011;2043;52.184;8.690;2023-11-19T07:07:34;27.70;;;5.03;;
4055;SDS011;2043;52.184;8.690;2023-11-19T07:10:02;36.63;;;5.80;;
4055;SDS011;2043;52.184;8.690;2023-11-19T07:12:30;25.97;;;5.77;;
4055;SDS011;2043;52.184;8.690;2023-11-19T07:14:57;19.77;;;4.90;;
4055;SDS011;2043;52.184;8.690;2023-11-19T07:17:24;30.33;;;6.23;;
4055;SDS011;2043;52.184;8.690;2023-11-19T07:19:51;37.00;;;6.30;;
4055;SDS011;2043;52.184;8.690;2023-11-19T07:22:17;31.90;;;6.80;;
4055;SDS011;2043;52.184;8.690;2023-11-19T07:24:44;33.70;;;6.40;;
4055;SDS011;2043;52.184;8.690;2023-11-19T07:27:11;22.23;;;4.23;;
4055;SDS011;2043;52.184;8.690;2023-11-19T07:29:39;36.20;;;6.60;;
4055;SDS011;2043;52.184;8.690;2023-11-19T07:32:07;30.73;;;6.70;;
4055;SDS011;2043;52.184;8.690;2023-11-19T07:34:34;28.50;;;5.70;;
4055;SDS011;2043;52.184;8.690;2023-11-19T07:37:01;30.27;;;6.57;;
4055;SDS011;2043;52.184;8.690;2023-11-19T07:39:29;30.30;;;6.17;;
4055;SDS011;2043;52.184;8.690;2023-11-19T07:41:55;40.07;;;6.50;;
4055;SDS011;2043;52.184;8.690;2023-11-19T07:44:22;38.50;;;6.83;;
4055;SDS011;2043;52.184;8.690;2023-11-19T07:46:49;29.67;;;5.90;;
4055;SDS011;2043;52.184;8.690;2023-11-19T07:49:16;28.07;;;5.40;;
4055;SDS011;2043;52.184;8.690;2023-11-19T07:51:43;27.47;;;6.17;;
4055;SDS011;2043;52.184;8.690;2023-11-19T07:54:10;41.30;;;7.00;;
4055;SDS011;2043;52.184;8.690;2023-11-19T07:56:37;39.13;;;5.67;;
4055;SDS011;2043;52.184;8.690;2023-11-19T07:59:03;22.67;;;6.03;;
4055;SDS011;2043;52.184;8.690;2023-11-19T08:01:30;31.40;;;5.93;;
4055;SDS011;2043;52.184;8.690;2023-11-19T08:03:57;41.10;;;7.00;;
4055;SDS011;2043;52.184;8.690;2023-11-19T08:06:25;51.83;;;6.37;;
4055;SDS011;2043;52.184;8.690;2023-11-19T08:08:52;46.10;;;7.47;;
4055;SDS011;2043;52.184;8.690;2023-11-19T08:11:19;35.13;;;5.87;;
4055;SDS011;2043;52.184;8.690;2023-11-19T08:13:46;28.27;;;5.57;;
4055;SDS011;2043;52.184;8.690;2023-11-19T08:16:13;33.07;;;6.00;;
4055;SDS011;2043;52.184;8.690;2023-11-19T08:18:42;29.50;;;5.80;;
4055;SDS011;2043;52.184;8.690;2023-11-19T08:21:09;37.37;;;6.83;;
4055;SDS011;2043;52.184;8.690;2023-11-19T08:23:36;34.70;;;7.27;;
4055;SDS011;2043;52.184;8.690;2023-11-19T08:26:05;34.77;;;5.50;;
4055;SDS011;2043;52.184;8.690;2023-11-19T08:28:32;28.17;;;6.10;;
4055;SDS011;2043;52.184;8.690;2023-11-19T08:31:01;26.27;;;5.47;;
4055;SDS011;2043;52.184;8.690;2023-11-19T08:33:30;30.07;;;6.23;;
4055;SDS011;2043;52.184;8.690;2023-11-19T08:35:57;32.60;;;6.03;;
4055;SDS011;2043;52.184;8.690;2023-11-19T08:38:24;36.47;;;5.70;;
4055;SDS011;2043;52.184;8.690;2023-11-19T08:40:54;27.23;;;5.43;;
4055;SDS011;2043;52.184;8.690;2023-11-19T08:43:26;33.93;;;5.70;;
4055;SDS011;2043;52.184;8.690;2023-11-19T08:45:53;31.13;;;6.60;;
4055;SDS011;2043;52.184;8.690;2023-11-19T08:48:20;37.70;;;7.60;;
4055;SDS011;2043;52.184;8.690;2023-11-19T08:50:47;31.17;;;5.70;;
4055;SDS011;2043;52.184;8.690;2023-11-19T08:53:14;38.37;;;5.57;;
4055;SDS011;2043;52.184;8.690;2023-11-19T08:55:41;33.67;;;6.30;;
4055;SDS011;2043;52.184;8.690;2023-11-19T08:58:08;32.13;;;5.90;;
4055;SDS011;2043;52.184;8.690;2023-11-19T09:00:35;25.63;;;4.47;;
4055;SDS011;2043;52.184;8.690;2023-11-19T09:03:02;45.57;;;7.80;;
4055;SDS011;2043;52.184;8.690;2023-11-19T09:05:30;40.97;;;6.13;;
4055;SDS011;2043;52.184;8.690;2023-11-19T09:07:57;33.93;;;5.67;;
4055;SDS011;2043;52.184;8.690;2023-11-19T09:10:24;29.03;;;5.73;;
4055;SDS011;2043;52.184;8.690;2023-11-19T09:12:51;40.33;;;7.03;;
4055;SDS011;2043;52.184;8.690;2023-11-19T09:15:20;36.33;;;6.50;;
4055;SDS011;2043;52.184;8.690;2023-11-19T09:17:47;32.57;;;7.53;;
4055;SDS011;2043;52.184;8.690;2023-11-19T09:20:14;25.97;;;5.17;;
4055;SDS011;2043;52.184;8.690;2023-11-19T09:22:42;32.53;;;6.57;;
4055;SDS011;2043;52.184;8.690;2023-11-19T09:25:09;39.33;;;8.03;;
4055;SDS011;2043;52.184;8.690;2023-11-19T09:27:36;35.30;;;8.20;;
4055;SDS011;2043;52.184;8.690;2023-11-19T09:30:03;42.63;;;7.57;;
4055;SDS011;2043;52.184;8.690;2023-11-19T09:32:30;43.10;;;8.10;;
4055;SDS011;2043;52.184;8.690;2023-11-19T09:34:57;38.93;;;10.03;;
4055;SDS011;2043;52.184;8.690;2023-11-19T09:37:24;34.43;;;6.97;;
4055;SDS011;2043;52.184;8.690;2023-11-19T09:39:51;50.40;;;7.60;;
4055;SDS011;2043;52.184;8.690;2023-11-19T09:42:19;34.87;;;7.27;;
4055;SDS011;2043;52.184;8.690;2023-11-19T09:44:47;33.63;;;7.13;;
4055;SDS011;2043;52.184;8.690;2023-11-19T09:47:16;39.80;;;8.20;;
4055;SDS011;2043;52.184;8.690;2023-11-19T09:49:45;50.57;;;7.80;;
4055;SDS011;2043;52.184;8.690;2023-11-19T09:52:12;46.10;;;7.63;;
4055;SDS011;2043;52.184;8.690;2023-11-19T09:54:39;38.10;;;8.13;;
4055;SDS011;2043;52.184;8.690;2023-11-19T09:57:06;41.37;;;7.47;;
4055;SDS011;2043;52.184;8.690;2023-11-19T09:59:34;37.50;;;8.00;;
4055;SDS011;2043;52.184;8.690;2023-11-19T10:02:03;50.17;;;8.40;;
4055;SDS011;2043;52.184;8.690;2023-11-19T10:04:31;39.23;;;8.00;;
4055;SDS011;2043;52.184;8.690;2023-11-19T10:07:01;31.87;;;7.40;;
4055;SDS011;2043;52.184;8.690;2023-11-19T10:09:27;32.40;;;7.17;;
4055;SDS011;2043;52.184;8.690;2023-11-19T10:11:54;39.97;;;8.67;;
4055;SDS011;2043;52.184;8.690;2023-11-19T10:14:23;37.60;;;7.20;;
4055;SDS011;2043;52.184;8.690;2023-11-19T10:16:50;24.67;;;5.57;;
4055;SDS011;2043;52.184;8.690;2023-11-19T10:19:20;35.77;;;5.53;;
4055;SDS011;2043;52.184;8.690;2023-11-19T10:21:47;31.43;;;7.23;;
4055;SDS011;2043;52.184;8.690;2023-11-19T10:24:14;29.73;;;6.43;;
4055;SDS011;2043;52.184;8.690;2023-11-19T10:26:56;38.33;;;6.50;;
4055;SDS011;2043;52.184;8.690;2023-11-19T10:29:23;38.80;;;7.77;;
4055;SDS011;2043;52.184;8.690;2023-11-19T10:31:56;40.60;;;7.70;;
4055;SDS011;2043;52.184;8.690;2023-11-19T10:34:44;22.90;;;5.97;;
4055;SDS011;2043;52.184;8.690;2023-11-19T10:37:26;36.17;;;7.70;;
4055;SDS011;2043;52.184;8.690;2023-11-19T10:39:58;44.40;;;7.53;;
4055;SDS011;2043;52.184;8.690;2023-11-19T10:42:25;38.43;;;7.07;;
4055;SDS011;2043;52.184;8.690;2023-11-19T10:44:52;31.23;;;6.40;;
4055;SDS011;2043;52.184;8.690;2023-11-19T10:47:19;52.63;;;8.40;;
4055;SDS011;2043;52.184;8.690;2023-11-19T10:50:04;28.70;;;6.97;;
4055;SDS011;2043;52.184;8.690;2023-11-19T10:52:32;23.10;;;6.10;;
4055;SDS011;2043;52.184;8.690;2023-11-19T10:55:00;28.03;;;5.83;;
4055;SDS011;2043;52.184;8.690;2023-11-19T10:57:28;28.50;;;6.63;;
4055;SDS011;2043;52.184;8.690;2023-11-19T11:00:00;37.10;;;7.13;;
4055;SDS011;2043;52.184;8.690;2023-11-19T11:02:29;34.20;;;6.50;;
4055;SDS011;2043;52.184;8.690;2023-11-19T11:05:02;34.70;;;6.40;;
4055;SDS011;2043;52.184;8.690;2023-11-19T11:07:29;41.73;;;6.37;;
4055;SDS011;2043;52.184;8.690;2023-11-19T11:10:06;30.37;;;6.70;;
4055;SDS011;2043;52.184;8.690;2023-11-19T11:12:37;36.60;;;7.03;;
4055;SDS011;2043;52.184;8.690;2023-11-19T11:15:06;31.37;;;6.80;;
4055;SDS011;2043;52.184;8.690;2023-11-19T11:17:34;31.37;;;6.90;;
4055;SDS011;2043;52.184;8.690;2023-11-19T11:20:02;31.63;;;6.60;;
4055;SDS011;2043;52.184;8.690;2023-11-19T11:22:33;42.43;;;6.53;;
4055;SDS011;2043;52.184;8.690;2023-11-19T11:25:19;29.70;;;6.80;;
4055;SDS011;2043;52.184;8.690;2023-11-19T11:28:11;39.90;;;7.13;;
4055;SDS011;2043;52.184;8.690;2023-11-19T11:30:55;35.07;;;5.90;;
4055;SDS011;2043;52.184;8.690;2023-11-19T11:33:31;33.63;;;6.50;;
4055;SDS011;2043;52.184;8.690;2023-11-19T11:36:30;35.80;;;6.00;;
4055;SDS011;2043;52.184;8.690;2023-11-19T11:39:01;39.33;;;6.33;;
4055;SDS011;2043;52.184;8.690;2023-11-19T11:41:33;41.07;;;7.10;;
4055;SDS011;2043;52.184;8.690;2023-11-19T11:44:01;31.23;;;5.60;;
4055;SDS011;2043;52.184;8.690;2023-11-19T11:49:02;38.87;;;7.17;;
4055;SDS011;2043;52.184;8.690;2023-11-19T11:59:47;41.63;;;6.97;;
4055;SDS011;2043;52.184;8.690;2023-11-19T12:02:15;32.60;;;7.20;;
4055;SDS011;2043;52.184;8.690;2023-11-19T12:04:50;43.20;;;7.40;;
4055;SDS011;2043;52.184;8.690;2023-11-19T12:07:20;27.67;;;6.20;;
4055;SDS011;2043;52.184;8.690;2023-11-19T12:10:05;39.00;;;5.23;;
4055;SDS011;2043;52.184;8.690;2023-11-19T12:12:39;35.73;;;6.10;;
4055;SDS011;2043;52.184;8.690;2023-11-19T12:15:08;39.37;;;5.80;;
4055;SDS011;2043;52.184;8.690;2023-11-19T12:17:43;29.07;;;5.93;;
4055;SDS011;2043;52.184;8.690;2023-11-19T12:20:16;38.93;;;5.83;;
4055;SDS011;2043;52.184;8.690;2023-11-19T12:22:59;29.93;;;6.10;;
4055;SDS011;2043;52.184;8.690;2023-11-19T12:25:33;38.00;;;6.00;;
4055;SDS011;2043;52.184;8.690;2023-11-19T12:28:00;41.30;;;6.67;;
4055;SDS011;2043;52.184;8.690;2023-11-19T12:30:30;35.00;;;7.23;;
4055;SDS011;2043;52.184;8.690;2023-11-19T12:32:58;35.67;;;5.93;;
4055;SDS011;2043;52.184;8.690;2023-11-19T12:35:25;32.80;;;6.80;;
4055;SDS011;2043;52.184;8.690;2023-11-19T12:37:52;36.10;;;6.70;;
4055;SDS011;2043;52.184;8.690;2023-11-19T12:40:20;39.80;;;7.90;;
4055;SDS011;2043;52.184;8.690;2023-11-19T12:42:47;33.43;;;6.73;;
4055;SDS011;2043;52.184;8.690;2023-11-19T12:45:15;43.30;;;6.50;;
4055;SDS011;2043;52.184;8.690;2023-11-19T12:47:43;33.10;;;6.10;;
4055;SDS011;2043;52.184;8.690;2023-11-19T12:50:10;23.67;;;5.90;;
4055;SDS011;2043;52.184;8.690;2023-11-19T12:52:37;30.43;;;5.43;;
4055;SDS011;2043;52.184;8.690;2023-11-19T12:55:05;31.17;;;5.73;;
4055;SDS011;2043;52.184;8.690;2023-11-19T12:57:53;34.77;;;8.30;;
4055;SDS011;2043;52.184;8.690;2023-11-19T13:00:22;46.63;;;7.90;;
4055;SDS011;2043;52.184;8.690;2023-11-19T13:05:27;37.63;;;7.17;;
4055;SDS011;2043;52.184;8.690;2023-11-19T13:10:33;46.50;;;6.90;;
4055;SDS011;2043;52.184;8.690;2023-11-19T13:13:20;40.13;;;7.50;;
4055;SDS011;2043;52.184;8.690;2023-11-19T13:15:47;50.80;;;9.27;;
4055;SDS011;2043;52.184;8.690;2023-11-19T13:18:15;38.43;;;7.33;;
4055;SDS011;2043;52.184;8.690;2023-11-19T13:20:42;36.10;;;6.83;;
4055;SDS011;2043;52.184;8.690;2023-11-19T13:23:10;41.80;;;5.77;;
4055;SDS011;2043;52.184;8.690;2023-11-19T13:25:36;42.23;;;6.60;;
4055;SDS011;2043;52.184;8.690;2023-11-19T13:28:03;40.43;;;7.40;;
4055;SDS011;2043;52.184;8.690;2023-11-19T13:30:32;37.57;;;6.20;;
4055;SDS011;2043;52.184;8.690;2023-11-19T13:32:59;27.63;;;6.00;;
4055;SDS011;2043;52.184;8.690;2023-11-19T13:35:27;37.23;;;6.67;;
4055;SDS011;2043;52.184;8.690;2023-11-19T13:37:54;43.50;;;7.10;;
4055;SDS011;2043;52.184;8.690;2023-11-19T13:40:21;33.37;;;5.60;;
4055;SDS011;2043;52.184;8.690;2023-11-19T13:42:49;25.87;;;5.63;;
4055;SDS011;2043;52.184;8.690;2023-11-19T13:45:15;34.47;;;6.17;;
4055;SDS011;2043;52.184;8.690;2023-11-19T13:47:45;32.40;;;6.33;;
4055;SDS011;2043;52.184;8.690;2023-11-19T13:50:12;36.50;;;6.30;;
4055;SDS011;2043;52.184;8.690;2023-11-19T13:52:41;28.87;;;4.97;;
4055;SDS011;2043;52.184;8.690;2023-11-19T13:55:11;26.13;;;5.73;;
4055;SDS011;2043;52.184;8.690;2023-11-19T13:57:39;27.60;;;6.13;;
4055;SDS011;2043;52.184;8.690;2023-11-19T14:00:08;24.37;;;4.83;;
4055;SDS011;2043;52.184;8.690;2023-11-19T14:02:39;32.50;;;6.17;;
4055;SDS011;2043;52.184;8.690;2023-11-19T14:05:07;22.70;;;5.17;;
4055;SDS011;2043;52.184;8.690;2023-11-19T14:07:35;33.63;;;6.30;;
4055;SDS011;2043;52.184;8.690;2023-11-19T14:10:02;20.53;;;4.50;;
4055;SDS011;2043;52.184;8.690;2023-11-19T14:12:29;49.93;;;7.77;;
4055;SDS011;2043;52.184;8.690;2023-11-19T14:14:56;35.80;;;6.73;;
4055;SDS011;2043;52.184;8.690;2023-11-19T14:17:23;24.77;;;5.10;;
4055;SDS011;2043;52.184;8.690;2023-11-19T14:19:53;28.70;;;6.07;;
4055;SDS011;2043;52.184;8.690;2023-11-19T14:22:20;29.70;;;6.37;;
4055;SDS011;2043;52.184;8.690;2023-11-19T14:24:47;28.67;;;5.37;;
4055;SDS011;2043;52.184;8.690;2023-11-19T14:27:14;33.33;;;5.73;;
4055;SDS011;2043;52.184;8.690;2023-11-19T14:29:41;25.67;;;4.83;;
4055;SDS011;2043;52.184;8.690;2023-11-19T14:32:07;31.47;;;5.10;;
4055;SDS011;2043;52.184;8.690;2023-11-19T14:34:34;22.97;;;5.80;;
4055;SDS011;2043;52.184;8.690;2023-11-19T14:37:02;29.77;;;4.83;;
4055;SDS011;2043;52.184;8.690;2023-11-19T14:39:29;30.87;;;5.70;;
4055;SDS011;2043;52.184;8.690;2023-11-19T14:41:57;29.20;;;5.97;;
4055;SDS011;2043;52.184;8.690;2023-11-19T14:44:27;25.47;;;4.37;;
4055;SDS011;2043;52.184;8.690;2023-11-19T14:46:55;31.33;;;5.70;;
4055;SDS011;2043;52.184;8.690;2023-11-19T14:49:22;29.67;;;6.30;;
4055;SDS011;2043;52.184;8.690;2023-11-19T14:51:50;32.10;;;6.10;;
4055;SDS011;2043;52.184;8.690;2023-11-19T14:54:17;29.53;;;5.30;;
4055;SDS011;2043;52.184;8.690;2023-11-19T14:56:44;25.23;;;5.43;;
4055;SDS011;2043;52.184;8.690;2023-11-19T14:59:11;33.30;;;5.83;;
4055;SDS011;2043;52.184;8.690;2023-11-19T15:01:37;20.23;;;4.80;;
4055;SDS011;2043;52.184;8.690;2023-11-19T15:04:06;25.20;;;4.43;;
4055;SDS011;2043;52.184;8.690;2023-11-19T15:06:33;25.50;;;5.47;;
4055;SDS011;2043;52.184;8.690;2023-11-19T15:09:00;26.87;;;6.40;;
4055;SDS011;2043;52.184;8.690;2023-11-19T15:11:28;24.20;;;5.20;;
4055;SDS011;2043;52.184;8.690;2023-11-19T15:13:55;26.57;;;5.10;;
4055;SDS011;2043;52.184;8.690;2023-11-19T15:16:22;19.53;;;5.00;;
4055;SDS011;2043;52.184;8.690;2023-11-19T15:18:57;31.17;;;5.10;;
4055;SDS011;2043;52.184;8.690;2023-11-19T15:21:31;22.50;;;4.60;;
4055;SDS011;2043;52.184;8.690;2023-11-19T15:23:58;21.80;;;5.07;;
4055;SDS011;2043;52.184;8.690;2023-11-19T15:26:25;27.77;;;5.77;;
4055;SDS011;2043;52.184;8.690;2023-11-19T15:28:52;18.93;;;4.97;;